KCDN

Woodward Field Airport

Camden, South Carolina, USA
METAR KCDN 231235Z AUTO 00000KT 10SM CLR 07/05 A3022 RMK AO2
Observed Flight Rules
Oct-23 @ 12:35 UTC (5 minutes ago) Visual Flight Rules
Visibility Clouds
10 miles
  • Clear skies
Temperatures Readings
Current 7°C / 45°F
Dewpoint 5°C / 41°F
Humidity 87%
Altimeter 30.22" Hg
Pressure 1023 hPa
Elevation 92
METAR KCDN 231235Z AUTO 00000KT 10SM CLR 07/05 A3022 RMK AO2
Observed Flight Rules
Oct-23 @ 12:35 UTC
(5 minutes ago)
VFR
Clouds
  • Clear skies
Temperature Dewpoint
7°C / 45°F 5°C / 41°F
Humidity Altimeter Pressure
87% 30.22" Hg 1023 hPa